createdAt,value
2018-12-08T00:00:06.544Z,75.33
2018-12-08T00:02:34.947Z,76.64
2018-12-08T00:05:03.677Z,77.00
2018-12-08T00:07:32.116Z,77.32
2018-12-08T00:10:00.488Z,76.54
2018-12-08T00:12:29.035Z,76.21
2018-12-08T00:14:57.398Z,76.33
2018-12-08T00:17:25.736Z,76.85
2018-12-08T00:19:54.140Z,77.61
2018-12-08T00:22:22.487Z,78.32
2018-12-08T00:24:50.867Z,81.08
2018-12-08T00:27:19.199Z,81.12
2018-12-08T00:29:47.528Z,82.94
2018-12-08T00:32:15.896Z,86.46
2018-12-08T00:34:44.279Z,91.48
2018-12-08T00:37:12.625Z,92.15
2018-12-08T00:39:41.199Z,92.22
2018-12-08T00:42:09.779Z,94.04
2018-12-08T00:44:38.119Z,95.50
2018-12-08T00:47:06.705Z,95.31
2018-12-08T00:49:35.244Z,93.96
2018-12-08T00:52:03.571Z,95.54
2018-12-08T00:54:31.923Z,95.88
2018-12-08T00:57:00.370Z,96.64
2018-12-08T00:59:28.912Z,92.09
2018-12-08T01:01:57.326Z,92.67
2018-12-08T01:04:25.985Z,91.66
2018-12-08T01:06:54.301Z,92.22
2018-12-08T01:09:22.662Z,91.73
2018-12-08T01:11:52.041Z,92.59
2018-12-08T01:14:20.660Z,92.24
2018-12-08T01:16:49.246Z,91.82
2018-12-08T01:19:17.573Z,93.07
2018-12-08T01:21:46.019Z,92.76
2018-12-08T01:24:14.340Z,90.59
2018-12-08T01:26:42.783Z,90.31
2018-12-08T01:29:11.542Z,89.70
2018-12-08T01:31:39.867Z,88.52
2018-12-08T01:34:08.269Z,88.53
2018-12-08T01:36:36.603Z,87.32
2018-12-08T01:39:07.288Z,87.43
2018-12-08T01:41:36.157Z,86.94
2018-12-08T01:44:04.859Z,85.86
2018-12-08T01:46:33.266Z,86.77
2018-12-08T01:49:01.700Z,85.44
2018-12-08T01:51:31.377Z,85.15
2018-12-08T01:54:00.292Z,84.90
2018-12-08T01:56:28.762Z,85.87
2018-12-08T01:58:57.094Z,86.13
2018-12-08T02:01:25.475Z,85.12
2018-12-08T02:03:53.820Z,85.75
2018-12-08T02:06:22.240Z,85.98
2018-12-08T02:08:51.612Z,85.67
2018-12-08T02:11:24.819Z,85.82
2018-12-08T02:13:52.265Z,85.99
2018-12-08T02:16:20.656Z,85.56
2018-12-08T02:18:49.032Z,85.25
2018-12-08T02:21:17.413Z,84.76
2018-12-08T02:23:46.010Z,84.68
2018-12-08T02:26:14.597Z,84.60
2018-12-08T02:28:43.044Z,85.21
2018-12-08T02:31:11.384Z,84.36
2018-12-08T02:33:39.749Z,84.50
2018-12-08T02:36:08.093Z,83.77
2018-12-08T02:38:36.457Z,84.85
2018-12-08T02:41:04.847Z,83.41
2018-12-08T02:43:33.569Z,84.18
2018-12-08T02:46:01.918Z,84.09
2018-12-08T02:48:30.398Z,82.96
2018-12-08T02:50:58.773Z,83.84
2018-12-08T02:53:27.121Z,83.46
2018-12-08T02:55:55.532Z,83.60
2018-12-08T02:58:24.018Z,84.09
2018-12-08T03:00:52.355Z,83.09
2018-12-08T03:03:20.684Z,83.71
2018-12-08T03:05:49.036Z,83.63
2018-12-08T03:08:17.384Z,84.04
2018-12-08T03:10:46.440Z,84.15
2018-12-08T03:13:15.057Z,83.35
2018-12-08T03:15:43.374Z,82.15
2018-12-08T03:18:11.740Z,82.24
2018-12-08T03:20:40.062Z,83.07
2018-12-08T03:23:08.395Z,82.85
2018-12-08T03:25:37.237Z,83.78
2018-12-08T03:28:05.826Z,82.93
2018-12-08T03:30:34.308Z,82.13
2018-12-08T03:33:02.668Z,81.93
2018-12-08T03:35:31.054Z,82.12
2018-12-08T03:37:59.458Z,81.70
2018-12-08T03:40:27.844Z,81.74
2018-12-08T03:42:56.188Z,81.74
2018-12-08T03:45:24.617Z,82.28
2018-12-08T03:47:53.134Z,81.87
2018-12-08T03:50:21.546Z,82.52
2018-12-08T03:52:49.903Z,83.32
2018-12-08T03:55:18.243Z,82.75
2018-12-08T03:57:46.614Z,82.84
2018-12-08T04:00:14.958Z,82.90
2018-12-08T04:02:43.441Z,81.98
2018-12-08T04:05:11.923Z,82.48
2018-12-08T04:07:40.295Z,83.00
2018-12-08T04:10:08.663Z,82.91
2018-12-08T04:12:37.072Z,82.76
2018-12-08T04:15:06.256Z,81.54
2018-12-08T04:17:34.608Z,81.26
2018-12-08T04:20:03.106Z,81.35
2018-12-08T04:22:31.494Z,80.64
2018-12-08T04:24:59.866Z,80.67
2018-12-08T04:27:30.327Z,80.64
2018-12-08T04:29:58.686Z,79.60
2018-12-08T04:32:27.156Z,79.85
2018-12-08T04:34:55.509Z,79.48
2018-12-08T04:37:24.523Z,79.46
2018-12-08T04:39:53.163Z,79.27
2018-12-08T04:42:21.611Z,78.54
2018-12-08T04:44:49.975Z,78.41
2018-12-08T04:47:18.302Z,79.18
2018-12-08T04:49:46.629Z,79.01
2018-12-08T04:52:15.239Z,80.14
2018-12-08T04:54:44.162Z,79.13
2018-12-08T04:57:12.591Z,78.59
2018-12-08T04:59:40.969Z,79.00
2018-12-08T05:02:09.448Z,78.04
2018-12-08T05:04:37.839Z,78.06
2018-12-08T05:07:06.168Z,77.69
2018-12-08T05:09:34.582Z,78.07
2018-12-08T05:12:07.367Z,78.50
2018-12-08T05:14:35.765Z,79.65
2018-12-08T05:17:04.285Z,79.31
2018-12-08T05:19:32.643Z,78.12
2018-12-08T05:22:01.104Z,78.88
2018-12-08T05:24:29.436Z,79.00
2018-12-08T05:26:57.846Z,78.80
2018-12-08T05:29:26.188Z,79.34
2018-12-08T05:31:54.632Z,79.42
2018-12-08T05:34:22.992Z,78.65
2018-12-08T05:36:51.350Z,79.64
2018-12-08T05:39:19.672Z,79.01
2018-12-08T05:41:48.007Z,78.66
2018-12-08T05:44:17.436Z,77.99
2018-12-08T05:46:45.829Z,78.00
2018-12-08T05:49:14.346Z,78.04
2018-12-08T05:51:42.930Z,78.15
2018-12-08T05:54:11.244Z,76.81
2018-12-08T05:56:39.571Z,76.94
2018-12-08T05:59:08.310Z,77.11
2018-12-08T06:01:36.641Z,77.24
2018-12-08T06:04:09.499Z,75.51
2018-12-08T06:06:37.968Z,75.04
2018-12-08T06:09:06.824Z,75.89
2018-12-08T06:11:35.934Z,75.71
2018-12-08T06:14:04.351Z,75.32
2018-12-08T06:16:32.725Z,75.40
2018-12-08T06:19:01.076Z,74.97
2018-12-08T06:21:36.180Z,74.77
2018-12-08T06:24:05.037Z,74.05
2018-12-08T06:26:36.894Z,73.97
2018-12-08T06:29:05.712Z,72.79
2018-12-08T06:31:34.156Z,72.30
2018-12-08T06:34:04.436Z,72.63
2018-12-08T06:36:32.789Z,72.58
2018-12-08T06:39:01.364Z,71.97
2018-12-08T06:41:29.684Z,72.47
2018-12-08T06:43:58.099Z,72.09
2018-12-08T06:46:26.493Z,72.18
2018-12-08T06:48:54.817Z,72.46
2018-12-08T06:51:23.221Z,71.94
2018-12-08T06:53:51.595Z,71.89
2018-12-08T06:56:20.005Z,72.28
2018-12-08T06:58:48.798Z,72.31
2018-12-08T07:01:17.486Z,72.34
2018-12-08T07:03:45.810Z,72.12
2018-12-08T07:06:14.234Z,72.78
2018-12-08T07:08:42.683Z,73.17
2018-12-08T07:11:11.148Z,73.45
2018-12-08T07:13:39.652Z,74.18
2018-12-08T07:16:08.449Z,74.09
2018-12-08T07:18:36.850Z,74.75
2018-12-08T07:21:05.193Z,74.95
2018-12-08T07:23:33.560Z,74.99
2018-12-08T07:26:01.943Z,74.85
2018-12-08T07:28:30.362Z,74.93
2018-12-08T07:30:59.507Z,74.70
2018-12-08T07:33:29.389Z,75.01
2018-12-08T07:35:58.076Z,75.19
2018-12-08T07:38:26.408Z,73.36
2018-12-08T07:40:54.764Z,72.23
2018-12-08T07:43:23.101Z,70.94
2018-12-08T07:45:51.494Z,69.99
2018-12-08T07:48:19.863Z,68.69
2018-12-08T07:50:48.222Z,67.92
2018-12-08T07:53:16.658Z,67.63
2018-12-08T07:55:45.021Z,68.33
2018-12-08T07:58:13.665Z,68.39
2018-12-08T08:00:41.988Z,67.60
2018-12-08T08:03:10.343Z,65.92
2018-12-08T08:05:38.733Z,65.27
2018-12-08T08:08:07.520Z,65.47
2018-12-08T08:10:36.310Z,64.67
2018-12-08T08:13:04.684Z,62.19
2018-12-08T08:15:33.071Z,61.20
2018-12-08T08:18:01.423Z,61.48
2018-12-08T08:20:29.894Z,62.01
2018-12-08T08:22:58.229Z,61.08
2018-12-08T08:25:26.578Z,60.76
2018-12-08T08:27:54.983Z,61.56
2018-12-08T08:30:23.312Z,60.67
2018-12-08T08:32:51.715Z,60.02
2018-12-08T08:35:20.098Z,59.52
2018-12-08T08:37:48.476Z,60.47
2018-12-08T08:40:16.958Z,60.27
2018-12-08T08:42:45.358Z,59.12
2018-12-08T08:45:14.032Z,59.03
2018-12-08T08:47:42.382Z,57.86
2018-12-08T08:50:10.706Z,58.36
2018-12-08T08:52:39.062Z,59.61
2018-12-08T08:55:07.425Z,58.83
2018-12-08T08:57:35.762Z,59.02
2018-12-08T09:00:05.359Z,57.42
2018-12-08T09:02:33.876Z,57.45
2018-12-08T09:05:02.209Z,58.74
2018-12-08T09:07:30.575Z,58.68
2018-12-08T09:09:58.904Z,58.42
2018-12-08T09:12:27.231Z,57.31
2018-12-08T09:14:55.604Z,60.25
2018-12-08T09:17:23.989Z,61.13
2018-12-08T09:19:52.779Z,60.85
2018-12-08T09:22:21.772Z,57.86
2018-12-08T09:24:50.219Z,57.10
2018-12-08T09:27:18.556Z,58.20
2018-12-08T09:29:46.917Z,58.54
2018-12-08T09:32:15.321Z,58.11
2018-12-08T09:34:43.665Z,57.79
2018-12-08T09:37:12.050Z,56.72
2018-12-08T09:39:40.402Z,57.02
2018-12-08T09:42:09.859Z,57.16
2018-12-08T09:44:38.192Z,57.32
2018-12-08T09:47:06.647Z,57.52
2018-12-08T09:49:35.067Z,56.34
2018-12-08T09:52:03.446Z,56.31
2018-12-08T09:54:32.242Z,56.02
2018-12-08T09:57:01.032Z,55.73
2018-12-08T09:59:29.365Z,56.52
2018-12-08T10:01:57.806Z,58.17
2018-12-08T10:04:26.163Z,56.59
2018-12-08T10:06:54.615Z,55.08
2018-12-08T10:09:23.090Z,56.04
2018-12-08T10:11:51.425Z,54.58
2018-12-08T10:14:19.764Z,56.33
2018-12-08T10:16:48.092Z,58.19
2018-12-08T10:19:16.455Z,58.04
2018-12-08T10:21:44.829Z,56.45
2018-12-08T10:24:13.847Z,55.75
2018-12-08T10:26:42.217Z,55.95
2018-12-08T10:29:10.785Z,54.15
2018-12-08T10:31:39.574Z,53.74
2018-12-08T10:34:08.091Z,53.13
2018-12-08T10:36:36.947Z,51.78
2018-12-08T10:39:06.923Z,52.74
2018-12-08T10:41:35.919Z,53.06
2018-12-08T10:44:04.300Z,52.14
2018-12-08T10:46:32.668Z,51.51
2018-12-08T10:49:01.007Z,52.71
2018-12-08T10:51:29.433Z,55.90
2018-12-08T10:53:57.764Z,56.83
2018-12-08T10:56:26.363Z,58.77
2018-12-08T10:58:54.728Z,58.74
2018-12-08T11:01:23.818Z,58.31
2018-12-08T11:03:52.259Z,56.63
2018-12-08T11:06:20.676Z,56.84
2018-12-08T11:08:49.137Z,59.34
2018-12-08T11:11:17.497Z,60.25
2018-12-08T11:13:45.840Z,59.94
2018-12-08T11:16:14.289Z,60.96
2018-12-08T11:18:42.673Z,61.55
2018-12-08T11:21:11.029Z,61.39
2018-12-08T11:23:39.418Z,61.45
2018-12-08T11:26:08.008Z,61.20
2018-12-08T11:28:36.390Z,61.00
2018-12-08T11:31:04.779Z,61.33
2018-12-08T11:33:33.145Z,61.59
2018-12-08T11:36:01.472Z,61.98
2018-12-08T11:38:30.327Z,62.46
2018-12-08T11:40:59.218Z,62.63
2018-12-08T11:43:27.647Z,62.69
2018-12-08T11:45:56.075Z,63.41
2018-12-08T11:48:24.454Z,63.06
2018-12-08T11:50:52.788Z,62.71
2018-12-08T11:53:21.153Z,60.87
2018-12-08T11:55:49.589Z,60.25
2018-12-08T11:58:17.932Z,60.38
2018-12-08T12:00:46.529Z,60.77
2018-12-08T12:03:15.100Z,59.97
2018-12-08T12:05:44.525Z,60.33
2018-12-08T12:08:13.135Z,60.40
2018-12-08T12:10:41.531Z,62.61
2018-12-08T12:13:10.300Z,62.46
2018-12-08T12:15:39.397Z,62.92
2018-12-08T12:18:07.792Z,63.34
2018-12-08T12:20:36.271Z,62.88
2018-12-08T12:23:04.729Z,62.60
2018-12-08T12:25:33.438Z,62.37
2018-12-08T12:28:01.987Z,61.19
2018-12-08T12:30:30.477Z,60.25
2018-12-08T12:32:58.871Z,60.29
2018-12-08T12:35:27.207Z,57.96
2018-12-08T12:37:55.583Z,57.71
2018-12-08T12:40:23.921Z,58.45
2018-12-08T12:42:52.362Z,57.41
2018-12-08T12:45:20.874Z,57.83
2018-12-08T12:47:49.559Z,57.05
2018-12-08T12:50:18.146Z,56.46
2018-12-08T12:52:46.593Z,57.52
2018-12-08T12:55:15.030Z,57.63
2018-12-08T12:57:43.367Z,56.98
2018-12-08T13:00:12.443Z,58.31
2018-12-08T13:02:40.788Z,57.64
2018-12-08T13:05:09.158Z,57.67
2018-12-08T13:07:37.521Z,58.36
2018-12-08T13:10:06.939Z,59.57
2018-12-08T13:12:35.294Z,59.85
2018-12-08T13:15:03.986Z,59.83
2018-12-08T13:17:32.578Z,59.93
2018-12-08T13:20:01.110Z,61.07
2018-12-08T13:22:29.439Z,61.56
2018-12-08T13:25:09.955Z,62.55
2018-12-08T13:27:38.619Z,62.60
2018-12-08T13:30:07.074Z,62.08
2018-12-08T13:32:35.452Z,63.10
2018-12-08T13:35:04.558Z,63.08
2018-12-08T13:37:32.922Z,62.60
2018-12-08T13:40:01.251Z,63.35
2018-12-08T13:42:29.656Z,63.30
2018-12-08T13:45:16.644Z,63.03
2018-12-08T13:47:45.309Z,65.31
2018-12-08T13:50:13.679Z,65.65
2018-12-08T13:52:42.028Z,65.08
2018-12-08T13:55:10.426Z,64.27
2018-12-08T13:57:38.802Z,64.34
2018-12-08T14:00:07.278Z,65.25
2018-12-08T14:02:35.679Z,66.12
2018-12-08T14:05:04.529Z,66.26
2018-12-08T14:07:32.961Z,66.56
2018-12-08T14:10:01.302Z,67.23
2018-12-08T14:12:29.661Z,67.54
2018-12-08T14:14:58.143Z,67.50
2018-12-08T14:17:26.461Z,67.53
2018-12-08T14:19:54.934Z,67.39
2018-12-08T14:22:23.317Z,67.86
2018-12-08T14:24:52.056Z,68.22
2018-12-08T14:27:20.734Z,68.23
2018-12-08T14:29:49.092Z,67.80
2018-12-08T14:32:17.440Z,68.48
2018-12-08T14:34:46.048Z,68.56
2018-12-08T14:37:14.415Z,68.95
2018-12-08T14:39:42.844Z,69.61
2018-12-08T14:42:11.276Z,69.79
2018-12-08T14:44:39.605Z,69.98
2018-12-08T14:47:07.938Z,70.36
2018-12-08T14:49:36.271Z,71.21
2018-12-08T14:52:04.714Z,71.75
2018-12-08T14:54:33.080Z,71.42
2018-12-08T14:57:01.409Z,71.61
2018-12-08T14:59:29.982Z,72.60
2018-12-08T15:01:58.572Z,74.39
2018-12-08T15:04:27.024Z,76.73
2018-12-08T15:06:55.374Z,82.51
2018-12-08T15:09:23.705Z,85.09
2018-12-08T15:11:52.030Z,86.76
2018-12-08T15:14:20.409Z,88.36
2018-12-08T15:16:48.787Z,89.79
2018-12-08T15:19:17.174Z,90.38
2018-12-08T15:21:45.492Z,90.59
2018-12-08T15:24:13.807Z,92.04
2018-12-08T15:26:42.156Z,92.56
2018-12-08T15:29:11.650Z,90.97
2018-12-08T15:31:40.091Z,90.51
2018-12-08T15:34:08.619Z,91.45
2018-12-08T15:36:37.111Z,91.28
2018-12-08T15:39:06.393Z,91.71
2018-12-08T15:41:34.744Z,91.57
2018-12-08T15:44:03.230Z,91.35
2018-12-08T15:46:31.584Z,91.22
2018-12-08T15:48:59.929Z,92.67
2018-12-08T15:51:28.542Z,92.29
2018-12-08T15:53:58.810Z,91.71
2018-12-08T15:56:27.163Z,90.21
2018-12-08T15:58:55.535Z,90.74
2018-12-08T16:01:23.884Z,91.20
2018-12-08T16:03:52.286Z,90.55
2018-12-08T16:06:20.683Z,89.76
2018-12-08T16:08:49.218Z,89.39
2018-12-08T16:11:17.703Z,88.11
2018-12-08T16:13:46.032Z,87.72
2018-12-08T16:16:14.420Z,85.02
2018-12-08T16:18:42.743Z,85.45
2018-12-08T16:21:11.177Z,85.15
2018-12-08T16:23:39.516Z,84.90
2018-12-08T16:26:07.878Z,85.09
2018-12-08T16:28:36.207Z,84.80
2018-12-08T16:31:04.564Z,83.88
2018-12-08T16:33:32.962Z,83.65
2018-12-08T16:36:01.299Z,83.81
2018-12-08T16:38:29.640Z,84.25
2018-12-08T16:40:57.949Z,83.92
2018-12-08T16:43:26.429Z,83.21
2018-12-08T16:45:55.014Z,82.41
2018-12-08T16:48:23.438Z,82.26
2018-12-08T16:50:51.829Z,82.22
2018-12-08T16:53:20.202Z,82.09
2018-12-08T16:55:48.636Z,82.09
2018-12-08T16:58:16.956Z,82.24
2018-12-08T17:00:45.332Z,82.20
2018-12-08T17:03:13.721Z,82.12
2018-12-08T17:05:42.063Z,81.93
2018-12-08T17:08:10.494Z,81.35
2018-12-08T17:10:38.868Z,81.55
2018-12-08T17:13:07.256Z,81.08
2018-12-08T17:15:35.608Z,80.68
2018-12-08T17:18:04.274Z,80.93
2018-12-08T17:20:32.977Z,80.75
2018-12-08T17:23:01.476Z,80.45
2018-12-08T17:25:29.871Z,80.35
2018-12-08T17:27:58.235Z,80.30
2018-12-08T17:30:26.598Z,80.36
2018-12-08T17:32:55.131Z,80.14
2018-12-08T17:35:23.516Z,80.64
2018-12-08T17:37:51.866Z,80.65
2018-12-08T17:40:20.217Z,79.92
2018-12-08T17:42:48.620Z,79.92
2018-12-08T17:45:16.968Z,79.33
2018-12-08T17:47:45.322Z,79.76
2018-12-08T17:50:13.766Z,79.22
2018-12-08T17:52:42.282Z,79.43
2018-12-08T17:55:10.760Z,79.29
2018-12-08T17:57:39.363Z,79.43
2018-12-08T18:00:07.698Z,79.61
2018-12-08T18:02:36.028Z,79.32
2018-12-08T18:05:04.628Z,79.46
2018-12-08T18:07:34.923Z,79.54
2018-12-08T18:10:05.367Z,79.80
2018-12-08T18:12:33.708Z,79.83
2018-12-08T18:15:02.079Z,79.94
2018-12-08T18:17:30.524Z,80.04
2018-12-08T18:19:58.931Z,80.64
2018-12-08T18:22:27.273Z,80.60
2018-12-08T18:24:55.972Z,79.86
2018-12-08T18:27:24.294Z,79.83
2018-12-08T18:29:52.796Z,79.91
2018-12-08T18:32:21.585Z,80.34
2018-12-08T18:34:49.906Z,80.38
2018-12-08T18:37:18.332Z,79.83
2018-12-08T18:39:46.687Z,80.13
2018-12-08T18:42:15.048Z,79.88
2018-12-08T18:44:43.532Z,79.78
2018-12-08T18:47:11.869Z,79.96
2018-12-08T18:49:40.293Z,80.94
2018-12-08T18:52:08.672Z,80.68
2018-12-08T18:54:36.998Z,79.96
2018-12-08T18:57:05.428Z,80.05
2018-12-08T18:59:34.373Z,79.00
2018-12-08T19:02:02.721Z,79.54
2018-12-08T19:04:31.235Z,79.24
2018-12-08T19:06:59.722Z,80.00
2018-12-08T19:09:28.457Z,79.77
2018-12-08T19:11:56.793Z,79.46
2018-12-08T19:14:25.144Z,79.32
2018-12-08T19:16:53.501Z,79.56
2018-12-08T19:19:21.831Z,80.06
2018-12-08T19:21:50.248Z,80.20
2018-12-08T19:24:18.589Z,80.58
2018-12-08T19:26:50.159Z,80.74
2018-12-08T19:29:18.699Z,80.39
2018-12-08T19:31:47.075Z,79.41
2018-12-08T19:34:17.688Z,79.35
2018-12-08T19:36:46.055Z,78.90
2018-12-08T19:39:14.783Z,78.25
2018-12-08T19:41:43.279Z,77.85
2018-12-08T19:44:11.713Z,78.04
2018-12-08T19:46:40.179Z,78.39
2018-12-08T19:49:08.907Z,77.88
2018-12-08T19:51:37.444Z,78.10
2018-12-08T19:54:05.769Z,78.86
2018-12-08T19:56:34.170Z,78.25
2018-12-08T19:59:02.653Z,78.37
2018-12-08T20:01:30.990Z,78.20
2018-12-08T20:03:59.479Z,78.64
2018-12-08T20:06:27.831Z,78.25
2018-12-08T20:08:56.182Z,78.36
2018-12-08T20:11:24.611Z,78.94
2018-12-08T20:13:53.530Z,78.72
2018-12-08T20:16:22.222Z,79.13
2018-12-08T20:18:50.656Z,79.09
2018-12-08T20:21:19.050Z,79.62
2018-12-08T20:23:47.380Z,79.88
2018-12-08T20:26:15.700Z,79.39
2018-12-08T20:28:44.079Z,79.03
2018-12-08T20:31:12.421Z,79.65
2018-12-08T20:33:40.751Z,79.23
2018-12-08T20:36:09.078Z,79.08
2018-12-08T20:38:37.496Z,78.07
2018-12-08T20:41:05.934Z,78.27
2018-12-08T20:43:34.375Z,77.83
2018-12-08T20:46:02.727Z,77.76
2018-12-08T20:48:31.257Z,77.91
2018-12-08T20:50:59.838Z,77.28
2018-12-08T20:53:28.423Z,77.52
2018-12-08T20:55:57.006Z,76.61
2018-12-08T20:58:25.437Z,76.46
2018-12-08T21:00:53.800Z,76.04
2018-12-08T21:03:22.212Z,75.95
2018-12-08T21:05:50.571Z,76.12
2018-12-08T21:08:18.943Z,75.80
2018-12-08T21:10:47.275Z,75.98
2018-12-08T21:13:16.469Z,76.35
2018-12-08T21:15:44.831Z,76.07
2018-12-08T21:18:13.297Z,76.56
2018-12-08T21:20:42.126Z,76.95
2018-12-08T21:23:10.917Z,76.06
2018-12-08T21:25:39.402Z,75.99
2018-12-08T21:28:08.092Z,76.50
2018-12-08T21:30:36.688Z,76.46
2018-12-08T21:33:05.267Z,75.67
2018-12-08T21:35:33.744Z,76.49
2018-12-08T21:38:02.392Z,76.44
2018-12-08T21:40:30.745Z,76.77
2018-12-08T21:42:59.124Z,77.32
2018-12-08T21:45:27.879Z,76.83
2018-12-08T21:47:56.319Z,77.47
2018-12-08T21:50:24.645Z,76.79
2018-12-08T21:52:53.077Z,76.90
2018-12-08T21:55:21.434Z,76.83
2018-12-08T21:57:50.359Z,76.05
2018-12-08T22:00:18.730Z,75.98
2018-12-08T22:02:47.145Z,75.68
2018-12-08T22:05:15.490Z,76.05
2018-12-08T22:07:43.892Z,75.76
2018-12-08T22:10:12.387Z,74.84
2018-12-08T22:12:40.761Z,75.06
2018-12-08T22:15:14.862Z,74.28
2018-12-08T22:17:43.803Z,74.21
2018-12-08T22:20:12.187Z,74.08
2018-12-08T22:22:40.703Z,74.19
2018-12-08T22:25:09.086Z,73.79
2018-12-08T22:27:37.838Z,73.71
2018-12-08T22:30:06.237Z,73.54
2018-12-08T22:32:34.646Z,73.75
2018-12-08T22:35:03.028Z,73.61
2018-12-08T22:37:31.442Z,73.92
2018-12-08T22:39:59.773Z,73.90
2018-12-08T22:42:28.357Z,73.42
2018-12-08T22:44:56.870Z,73.81
2018-12-08T22:47:26.202Z,73.59
2018-12-08T22:49:54.619Z,73.86
2018-12-08T22:52:22.969Z,74.24
2018-12-08T22:54:51.280Z,74.05
2018-12-08T22:57:19.616Z,74.00
2018-12-08T22:59:47.943Z,73.65
2018-12-08T23:02:17.064Z,73.92
2018-12-08T23:04:45.378Z,73.96
2018-12-08T23:07:13.872Z,73.57
2018-12-08T23:09:42.226Z,73.99
2018-12-08T23:12:10.613Z,74.72
2018-12-08T23:14:39.026Z,74.63
2018-12-08T23:17:07.363Z,74.77
2018-12-08T23:19:36.161Z,74.62
2018-12-08T23:22:04.745Z,74.44
2018-12-08T23:24:33.122Z,74.40
2018-12-08T23:27:01.466Z,74.46
2018-12-08T23:29:29.920Z,74.14
2018-12-08T23:31:58.256Z,74.33
2018-12-08T23:34:26.586Z,73.99
2018-12-08T23:36:54.956Z,74.96
2018-12-08T23:39:23.332Z,74.70
2018-12-08T23:41:51.672Z,74.37
2018-12-08T23:44:20.003Z,75.16
2018-12-08T23:46:48.329Z,74.40
2018-12-08T23:49:16.683Z,74.08
2018-12-08T23:51:45.089Z,74.95
2018-12-08T23:54:13.679Z,74.87
2018-12-08T23:56:42.262Z,74.37
2018-12-08T23:59:10.611Z,74.88
